createdAt,value
2023-01-23T00:04:49.721Z,16.97
2023-01-23T00:09:55.236Z,17.57
2023-01-23T00:15:00.369Z,16.47
2023-01-23T00:20:11.137Z,16.07
2023-01-23T00:25:17.434Z,17.00
2023-01-23T00:30:22.616Z,15.47
2023-01-23T00:35:39.372Z,14.83
2023-01-23T00:40:44.701Z,17.00
2023-01-23T00:45:51.034Z,17.40
2023-01-23T00:51:04.992Z,17.63
2023-01-23T00:56:11.390Z,17.63
2023-01-23T01:01:22.980Z,16.93
2023-01-23T01:06:32.113Z,15.63
2023-01-23T01:11:41.585Z,18.03
2023-01-23T01:16:46.832Z,14.43
2023-01-23T01:21:54.350Z,16.43
2023-01-23T01:27:02.578Z,15.33
2023-01-23T01:32:08.222Z,16.77
2023-01-23T01:37:16.035Z,15.03
2023-01-23T01:42:21.096Z,15.57
2023-01-23T01:47:27.174Z,15.47
2023-01-23T01:52:34.968Z,15.20
2023-01-23T01:57:43.867Z,16.03
2023-01-23T02:02:54.985Z,15.47
2023-01-23T02:08:11.156Z,16.13
2023-01-23T02:13:33.969Z,15.90
2023-01-23T02:18:44.012Z,15.57
2023-01-23T02:24:09.034Z,15.13
2023-01-23T02:29:22.263Z,14.77
2023-01-23T02:34:35.031Z,15.63
2023-01-23T02:39:40.369Z,13.83
2023-01-23T02:44:54.226Z,14.00
2023-01-23T02:50:00.568Z,15.63
2023-01-23T02:55:06.655Z,15.80
2023-01-23T03:00:23.062Z,14.93
2023-01-23T03:05:28.728Z,14.80
2023-01-23T03:10:34.370Z,16.33
2023-01-23T03:15:42.543Z,16.53
2023-01-23T03:20:50.806Z,16.43
2023-01-23T03:25:58.682Z,16.47
2023-01-23T03:31:17.793Z,15.60
2023-01-23T03:36:23.433Z,16.10
2023-01-23T03:41:28.692Z,17.30
2023-01-23T03:46:44.086Z,17.50
2023-01-23T03:51:51.702Z,16.47
2023-01-23T03:56:57.312Z,16.83
2023-01-23T04:02:24.805Z,16.50
2023-01-23T04:07:30.608Z,17.10
2023-01-23T04:12:35.659Z,18.53
2023-01-23T04:17:43.586Z,18.37
2023-01-23T04:22:48.605Z,18.73
2023-01-23T04:27:53.653Z,20.30
2023-01-23T04:33:01.163Z,20.00
2023-01-23T04:38:06.744Z,18.67
2023-01-23T04:43:14.074Z,17.53
2023-01-23T04:48:26.928Z,19.43
2023-01-23T04:53:32.302Z,18.80
2023-01-23T04:58:39.874Z,17.87
2023-01-23T05:03:49.546Z,18.43
2023-01-23T05:08:57.166Z,17.77
2023-01-23T05:14:12.813Z,20.07
2023-01-23T05:19:23.440Z,17.70
2023-01-23T05:24:28.658Z,17.60
2023-01-23T05:29:36.954Z,16.23
2023-01-23T05:34:52.702Z,17.33
2023-01-23T05:40:04.738Z,19.10
2023-01-23T05:45:29.689Z,18.17
2023-01-23T05:50:38.370Z,17.60
2023-01-23T05:55:43.760Z,17.87
2023-01-23T06:00:51.304Z,16.90
2023-01-23T06:06:25.410Z,16.80
2023-01-23T06:11:35.726Z,18.27
2023-01-23T06:16:43.636Z,17.80
2023-01-23T06:21:51.208Z,17.80
2023-01-23T06:26:56.975Z,17.63
2023-01-23T06:32:02.349Z,17.93
2023-01-23T06:37:18.207Z,18.30
2023-01-23T06:42:26.843Z,18.57
2023-01-23T06:47:36.441Z,18.17
2023-01-23T06:52:47.382Z,19.53
2023-01-23T06:57:52.460Z,18.40
2023-01-23T07:03:02.038Z,18.80
2023-01-23T07:08:13.698Z,18.03
2023-01-23T07:13:24.591Z,19.43
2023-01-23T07:18:32.802Z,18.60
2023-01-23T07:23:44.175Z,31.57
2023-01-23T07:28:49.152Z,19.63
2023-01-23T07:33:54.375Z,19.93
2023-01-23T07:39:04.046Z,19.37
2023-01-23T07:44:11.407Z,20.67
2023-01-23T07:49:17.079Z,19.37
2023-01-23T07:54:24.774Z,19.47
2023-01-23T07:59:30.791Z,18.80
2023-01-23T08:04:37.383Z,20.53
2023-01-23T08:09:45.377Z,20.37
2023-01-23T08:14:50.989Z,19.80
2023-01-23T08:19:55.981Z,19.83
2023-01-23T08:25:03.474Z,19.73
2023-01-23T08:30:10.561Z,18.43
2023-01-23T08:35:15.788Z,18.97
2023-01-23T08:40:23.632Z,19.10
2023-01-23T08:45:29.031Z,17.37
2023-01-23T08:50:34.559Z,19.77
2023-01-23T08:55:45.225Z,19.50
2023-01-23T09:00:51.351Z,19.90
2023-01-23T09:05:56.347Z,19.77
2023-01-23T09:11:07.833Z,19.37
2023-01-23T09:16:19.899Z,19.50
2023-01-23T09:21:25.056Z,20.27
2023-01-23T09:26:32.769Z,20.77
2023-01-23T09:31:38.276Z,23.40
2023-01-23T09:36:43.803Z,23.17
2023-01-23T09:41:52.301Z,20.83
2023-01-23T09:47:02.797Z,20.30
2023-01-23T09:52:15.901Z,21.50
2023-01-23T09:57:28.757Z,20.40
2023-01-23T10:02:34.167Z,20.93
2023-01-23T10:07:52.730Z,18.70
2023-01-23T10:13:09.425Z,19.30
2023-01-23T10:18:22.451Z,20.10
2023-01-23T10:23:47.192Z,18.63
2023-01-23T10:29:15.043Z,18.30
2023-01-23T10:34:43.772Z,20.27
2023-01-23T10:40:06.828Z,21.33
2023-01-23T10:45:36.352Z,18.90
2023-01-23T10:50:56.312Z,22.83
2023-01-23T10:56:04.760Z,19.73
2023-01-23T11:01:50.026Z,25.50
2023-01-23T11:07:14.809Z,20.17
2023-01-23T11:12:27.489Z,22.30
2023-01-23T11:17:38.472Z,20.20
2023-01-23T11:22:44.721Z,25.47
2023-01-23T11:28:01.183Z,22.87
2023-01-23T11:33:17.755Z,22.47
2023-01-23T11:38:31.331Z,23.80
2023-01-23T11:43:36.656Z,20.90
2023-01-23T11:49:02.447Z,22.87
2023-01-23T11:54:28.869Z,22.93
2023-01-23T11:59:58.445Z,22.17
2023-01-23T12:05:24.943Z,20.17
2023-01-23T12:10:34.884Z,20.80
2023-01-23T12:15:53.788Z,20.53
2023-01-23T12:21:08.913Z,22.03
2023-01-23T12:26:19.226Z,24.53
2023-01-23T12:31:41.526Z,24.40
2023-01-23T12:37:29.135Z,23.13
2023-01-23T12:42:44.198Z,23.07
2023-01-23T12:48:02.098Z,24.73
2023-01-23T12:53:36.736Z,26.37
2023-01-23T12:59:07.138Z,24.07
2023-01-23T13:04:48.971Z,24.60
2023-01-23T13:10:54.520Z,27.00
2023-01-23T13:16:26.113Z,31.73
2023-01-23T13:22:27.279Z,27.07
2023-01-23T13:28:09.317Z,25.10
2023-01-23T13:34:14.616Z,26.43
2023-01-23T13:39:31.546Z,28.77
2023-01-23T13:44:43.217Z,29.67
2023-01-23T14:23:43.112Z,29.27
2023-01-23T14:29:00.544Z,27.87
2023-01-23T14:34:17.662Z,29.60
2023-01-23T14:39:31.624Z,33.90
2023-01-23T14:44:46.918Z,30.67
2023-01-23T14:49:52.348Z,29.43
2023-01-23T14:55:07.359Z,29.87
2023-01-23T15:00:20.996Z,28.97
2023-01-23T15:05:35.044Z,29.17
2023-01-23T15:10:54.721Z,29.37
2023-01-23T15:16:05.499Z,28.73
2023-01-23T15:21:11.808Z,30.27
2023-01-23T15:26:36.459Z,31.83
2023-01-23T15:31:47.229Z,30.73
2023-01-23T15:36:56.362Z,28.30
2023-01-23T15:42:05.938Z,31.20
2023-01-23T15:47:11.523Z,30.80
2023-01-23T15:52:24.638Z,30.43
2023-01-23T15:57:34.934Z,30.97
2023-01-23T16:02:54.370Z,32.27
2023-01-23T16:08:05.037Z,28.97
2023-01-23T16:13:16.437Z,26.13
2023-01-23T16:18:25.260Z,28.13
2023-01-23T16:23:42.529Z,27.03
2023-01-23T16:29:02.004Z,26.07
2023-01-23T16:34:22.063Z,27.50
2023-01-23T16:39:29.458Z,28.77
2023-01-23T16:44:36.983Z,27.27
2023-01-23T16:49:52.058Z,26.07
2023-01-23T16:54:58.368Z,25.33
2023-01-23T17:00:16.556Z,28.33
2023-01-23T17:05:23.317Z,26.00
2023-01-23T17:10:45.522Z,27.80
2023-01-23T17:15:56.428Z,27.37
2023-01-23T17:21:05.906Z,27.57
2023-01-23T17:26:16.896Z,27.70
2023-01-23T17:31:29.456Z,26.60
2023-01-23T17:36:37.501Z,25.70
2023-01-23T17:41:42.605Z,25.57
2023-01-23T17:46:57.238Z,25.60
2023-01-23T17:52:03.788Z,27.27
2023-01-23T17:57:11.427Z,24.60
2023-01-23T18:02:30.475Z,25.57
2023-01-23T18:07:48.537Z,24.17
2023-01-23T18:13:08.856Z,26.00
2023-01-23T18:18:33.233Z,24.83
2023-01-23T18:23:41.380Z,38.17
2023-01-23T18:28:54.787Z,25.80
2023-01-23T18:34:17.319Z,26.93
2023-01-23T18:39:36.718Z,25.13
2023-01-23T18:44:45.566Z,25.23
2023-01-23T18:49:56.985Z,26.37
2023-01-23T18:55:11.235Z,23.10
2023-01-23T19:00:24.794Z,25.00
2023-01-23T19:05:39.122Z,24.10
2023-01-23T19:10:48.757Z,25.50
2023-01-23T19:16:02.936Z,26.23
2023-01-23T19:21:17.355Z,25.53
2023-01-23T19:26:24.520Z,25.90
2023-01-23T19:31:32.851Z,27.50
2023-01-23T19:36:43.444Z,27.67
2023-01-23T19:41:52.145Z,28.77
2023-01-23T19:46:58.781Z,28.23
2023-01-23T19:52:07.490Z,29.10
2023-01-23T19:57:14.683Z,30.13
2023-01-23T20:02:26.321Z,27.47
2023-01-23T20:07:36.563Z,29.60
2023-01-23T20:12:52.223Z,30.67
2023-01-23T20:17:57.850Z,28.80
2023-01-23T20:23:08.340Z,30.60
2023-01-23T20:28:14.084Z,30.30
2023-01-23T20:33:19.170Z,30.33
2023-01-23T20:38:27.182Z,30.83
2023-01-23T20:43:32.302Z,30.40
2023-01-23T20:48:40.944Z,28.93
2023-01-23T20:53:53.483Z,31.43
2023-01-23T20:59:12.039Z,29.23
2023-01-23T21:04:20.764Z,31.47
2023-01-23T21:09:28.663Z,29.43
2023-01-23T21:14:35.450Z,28.70
2023-01-23T21:19:42.049Z,32.30
2023-01-23T21:24:49.619Z,31.13
2023-01-23T21:29:54.527Z,32.90
2023-01-23T21:34:59.505Z,29.60
2023-01-23T21:40:12.467Z,30.50
2023-01-23T21:45:17.437Z,30.30
2023-01-23T21:50:22.344Z,31.33
2023-01-23T21:55:30.982Z,30.07
2023-01-23T22:00:57.630Z,29.23
2023-01-23T22:06:04.610Z,29.40
2023-01-23T22:11:15.144Z,31.50
2023-01-23T22:16:28.544Z,31.43
2023-01-23T22:21:46.916Z,34.57
2023-01-23T22:26:54.724Z,33.33
2023-01-23T22:32:02.538Z,33.20
2023-01-23T22:37:07.758Z,33.93
2023-01-23T22:42:15.365Z,31.87
2023-01-23T22:47:20.419Z,31.70
2023-01-23T22:52:27.438Z,34.70
2023-01-23T22:57:35.352Z,31.53
2023-01-23T23:02:40.274Z,33.40
2023-01-23T23:07:45.655Z,33.63
2023-01-23T23:12:54.644Z,32.93
2023-01-23T23:17:59.832Z,30.37
2023-01-23T23:23:07.783Z,32.80
2023-01-23T23:28:15.299Z,29.07
2023-01-23T23:33:23.271Z,28.00
2023-01-23T23:38:30.187Z,32.00
2023-01-23T23:43:38.632Z,27.67
2023-01-23T23:48:44.752Z,30.07
2023-01-23T23:53:51.075Z,29.30
2023-01-23T23:58:59.912Z,30.10
